Time;durP1;ratioP1;P1;durP2;ratioP2;P2;SDS_P1;SDS_P2;PMS_P1;PMS_P2;Temp;Humidity;BMP_temperature;BMP_pressure;BME280_temperature;BME280_humidity;BME280_pressure;Samples;Min_cycle;Max_cycle;Signal;HPM_P1;HPM_P2
2022/06/26 00:00:24;;;;;;;3.90;1.50;;;;;;;24.48;50.09;98392.84;4486059;32;20146;-82
2022/06/26 00:02:49;;;;;;;5.07;1.87;;;;;;;24.49;50.07;98397.22;4486157;31;20081;-82
2022/06/26 00:05:15;;;;;;;6.65;2.00;;;;;;;24.53;49.94;98395.84;4486048;31;20068;-82
2022/06/26 00:07:40;;;;;;;3.70;1.60;;;;;;;24.52;49.92;98394.19;4484846;32;20104;-82
2022/06/26 00:10:06;;;;;;;2.15;1.37;;;;;;;24.50;49.86;98396.22;4485952;31;20439;-82
2022/06/26 00:12:33;;;;;;;4.57;1.62;;;;;;;24.48;49.88;98393.69;4485929;31;20084;-82
2022/06/26 00:14:58;;;;;;;2.83;1.50;;;;;;;24.49;49.83;98398.06;4484793;32;20171;-82
2022/06/26 00:17:24;;;;;;;4.28;1.52;;;;;;;24.51;49.75;98398.75;4485823;31;20356;-82
2022/06/26 00:19:49;;;;;;;4.35;1.73;;;;;;;24.50;49.73;98407.81;4484626;32;20096;-83
2022/06/26 00:22:15;;;;;;;4.15;1.50;;;;;;;24.44;49.92;98411.22;4484650;32;20128;-82
2022/06/26 00:24:42;;;;;;;3.05;1.33;;;;;;;24.44;50.00;98411.22;4485917;32;20105;-82
2022/06/26 00:27:07;;;;;;;3.35;1.52;;;;;;;24.47;49.92;98412.72;4488146;31;20714;-82
2022/06/26 00:29:34;;;;;;;3.40;1.50;;;;;;;24.51;49.81;98417.59;4486876;32;20180;-82
2022/06/26 00:32:00;;;;;;;3.35;1.70;;;;;;;24.43;49.88;98423.00;4486773;32;20111;-82
2022/06/26 00:34:25;;;;;;;3.97;1.50;;;;;;;24.41;49.90;98422.34;4486717;32;20081;-82
2022/06/26 00:36:51;;;;;;;3.20;1.30;;;;;;;24.40;49.84;98423.37;4487860;32;20117;-82
2022/06/26 00:39:16;;;;;;;4.65;1.60;;;;;;;24.42;49.77;98417.81;4487960;31;20096;-82
2022/06/26 00:41:42;;;;;;;6.62;1.90;;;;;;;24.37;49.81;98423.72;4487864;31;20435;-82
2022/06/26 00:44:15;;;;;;;4.00;1.48;;;;;;;24.39;49.91;98421.69;4486704;32;20076;-82
2022/06/26 00:46:41;;;;;;;4.75;1.67;;;;;;;24.35;50.13;98423.06;4487678;31;20123;-82
2022/06/26 00:49:06;;;;;;;3.83;1.52;;;;;;;24.30;50.20;98422.81;4486686;32;20148;-82
2022/06/26 00:51:32;;;;;;;3.50;1.50;;;;;;;24.28;50.18;98417.59;4487865;31;20397;-82
2022/06/26 00:53:57;;;;;;;4.43;1.62;;;;;;;24.28;50.15;98416.72;4479971;31;20147;-80
2022/06/26 00:56:23;;;;;;;4.18;1.67;;;;;;;24.27;50.09;98410.53;4472775;31;20421;-82
2022/06/26 00:58:48;;;;;;;3.05;1.30;;;;;;;24.25;50.08;98409.88;4472718;32;20088;-82
2022/06/26 01:01:14;;;;;;;2.90;1.45;;;;;;;24.25;50.04;98407.19;4487131;32;20118;-81
2022/06/26 01:03:39;;;;;;;3.67;1.40;;;;;;;24.23;49.97;98409.22;4487211;32;20076;-82
2022/06/26 01:06:06;;;;;;;4.37;1.50;;;;;;;24.22;49.95;98415.63;4491482;31;20195;-81
2022/06/26 01:08:33;;;;;;;5.18;1.67;;;;;;;24.22;49.92;98422.84;4473382;32;20107;-84
2022/06/26 01:10:59;;;;;;;3.67;1.50;;;;;;;24.17;50.08;98419.88;4489281;31;20147;-84
2022/06/26 01:13:25;;;;;;;4.07;1.25;;;;;;;24.16;50.12;98420.88;4489595;31;20141;-83
2022/06/26 01:15:51;;;;;;;3.05;1.25;;;;;;;24.16;50.04;98420.88;4486835;32;20096;-83
2022/06/26 01:18:16;;;;;;;4.00;1.50;;;;;;;24.19;49.88;98426.75;4487645;31;20133;-83
2022/06/26 01:20:42;;;;;;;3.55;1.60;;;;;;;24.14;49.93;98432.69;4473596;32;20076;-83
2022/06/26 01:23:08;;;;;;;4.30;1.52;;;;;;;24.13;50.03;98435.53;4473375;32;20076;-83
2022/06/26 01:25:47;;;;;;;4.10;1.67;;;;;;;24.12;50.09;98423.91;4487562;32;20190;-83
2022/06/26 01:28:12;;;;;;;4.72;1.45;;;;;;;24.11;50.11;98422.25;4473467;32;20122;-84
2022/06/26 01:30:38;;;;;;;3.30;1.40;;;;;;;24.08;50.03;98425.28;4473172;32;20108;-84
2022/06/26 01:33:05;;;;;;;4.25;1.50;;;;;;;24.02;50.00;98428.72;4487598;32;20084;-84
2022/06/26 01:35:31;;;;;;;3.70;1.67;;;;;;;23.98;50.34;98431.94;4486563;32;20447;-83
2022/06/26 01:38:16;;;;;;;4.37;1.50;;;;;;;23.90;50.52;98427.44;4486237;32;20140;-84
2022/06/26 01:40:43;;;;;;;2.85;1.50;;;;;;;23.96;50.35;98425.91;4486627;32;20429;-83
2022/06/26 01:43:09;;;;;;;5.12;1.70;;;;;;;23.95;50.36;98425.03;4487788;31;20458;-83
2022/06/26 01:45:41;;;;;;;4.18;1.60;;;;;;;23.96;50.36;98429.44;4487757;31;20096;-83
2022/06/26 01:48:06;;;;;;;3.08;1.60;;;;;;;23.96;50.39;98421.34;4487774;31;20135;-83
2022/06/26 01:50:32;;;;;;;3.97;1.90;;;;;;;23.96;50.35;98418.66;4487714;31;20450;-83
2022/06/26 01:52:57;;;;;;;5.07;1.70;;;;;;;23.97;50.24;98425.75;4487628;31;20084;-83
2022/06/26 01:55:22;;;;;;;3.67;1.50;;;;;;;23.95;50.02;98425.03;4486391;32;20096;-83
2022/06/26 01:57:48;;;;;;;3.10;1.30;;;;;;;23.92;49.75;98423.56;4479858;32;20115;-84
2022/06/26 02:00:14;;;;;;;3.47;1.40;;;;;;;23.92;49.46;98428.12;4487135;32;20114;-84
2022/06/26 02:02:39;;;;;;;3.30;1.48;;;;;;;23.91;49.21;98426.41;4472939;32;20123;-83
2022/06/26 02:05:05;;;;;;;4.65;1.48;;;;;;;23.74;49.54;98426.50;4487322;32;20382;-84
2022/06/26 02:07:30;;;;;;;2.55;1.40;;;;;;;23.79;49.50;98425.16;4487369;32;20128;-84
2022/06/26 02:15:24;;;;;;;4.85;1.60;;;;;;;23.79;50.23;98447.50;4475254;32;20124;-84
2022/06/26 02:17:49;;;;;;;2.92;1.55;;;;;;;23.73;50.50;98458.94;4487247;32;20080;-84
2022/06/26 02:20:15;;;;;;;4.07;1.80;;;;;;;23.67;50.69;98455.09;4473061;32;20160;-84
2022/06/26 02:22:40;;;;;;;4.45;1.73;;;;;;;23.54;50.95;98452.97;4487154;32;20103;-84
2022/06/26 02:25:08;;;;;;;4.05;1.80;;;;;;;23.52;51.08;98455.00;4487179;32;20097;-84
2022/06/26 02:27:34;;;;;;;4.30;1.73;;;;;;;23.38;51.80;98457.59;4487184;32;20520;-85
2022/06/26 02:30:00;;;;;;;5.87;2.20;;;;;;;23.46;51.81;98468.31;4473300;32;20084;-84
2022/06/26 02:32:26;;;;;;;5.57;1.90;;;;;;;23.38;52.02;98468.34;4487477;32;20119;-84
2022/06/26 02:34:51;;;;;;;3.08;1.75;;;;;;;23.38;52.02;98471.03;4472870;32;20105;-83
2022/06/26 02:37:17;;;;;;;6.22;2.35;;;;;;;23.33;52.19;98476.91;4486981;32;20069;-84
2022/06/26 02:39:42;;;;;;;4.68;2.05;;;;;;;23.34;52.21;98474.06;4472658;32;20415;-84
2022/06/26 02:42:07;;;;;;;4.95;1.90;;;;;;;23.13;53.03;98476.47;4487137;32;20084;-84
2022/06/26 02:44:34;;;;;;;3.90;1.80;;;;;;;23.22;52.73;98479.97;4472788;32;20486;-83
2022/06/26 02:47:00;;;;;;;5.82;2.35;;;;;;;23.26;52.56;98478.66;4486947;32;20463;-84
2022/06/26 02:49:25;;;;;;;8.32;2.70;;;;;;;23.17;52.89;98484.00;4487063;32;20105;-84
2022/06/26 02:51:51;;;;;;;5.03;1.90;;;;;;;23.17;53.35;98486.69;4487039;32;20382;-84
2022/06/26 02:54:16;;;;;;;4.82;2.08;;;;;;;23.17;53.25;98486.69;4486935;32;20414;-84
2022/06/26 02:56:42;;;;;;;5.45;2.00;;;;;;;23.23;53.06;98497.78;4472669;32;20111;-84
2022/06/26 02:59:07;;;;;;;5.65;2.08;;;;;;;23.26;52.83;98498.28;4472425;32;20107;-84
2022/06/26 03:01:33;;;;;;;4.90;2.28;;;;;;;23.29;52.66;98502.47;4487007;32;20089;-84
2022/06/26 03:03:58;;;;;;;4.05;2.00;;;;;;;23.29;52.69;98510.53;4472667;32;20160;-84
2022/06/26 03:06:24;;;;;;;4.25;1.87;;;;;;;23.32;52.69;98511.03;4486865;32;20497;-84
2022/06/26 03:08:49;;;;;;;4.30;2.03;;;;;;;23.38;52.56;98508.69;4487041;32;20088;-84
2022/06/26 03:11:14;;;;;;;8.98;2.30;;;;;;;23.43;52.42;98506.28;4486769;32;20092;-84
2022/06/26 03:13:40;;;;;;;5.97;2.30;;;;;;;23.42;52.43;98510.84;4472647;32;20140;-84
2022/06/26 03:16:05;;;;;;;6.65;2.15;;;;;;;23.51;52.22;98520.56;4486743;32;20359;-84
2022/06/26 03:18:31;;;;;;;6.20;2.30;;;;;;;23.52;52.23;98524.91;4486642;32;20093;-83
2022/06/26 03:20:56;;;;;;;5.07;2.17;;;;;;;23.60;52.13;98515.13;4472430;32;20131;-84
2022/06/26 03:24:00;;;;;;;5.43;2.03;;;;;;;23.58;52.32;98517.16;4486651;32;20157;-83
2022/06/26 03:26:07;;;;;;;5.45;2.10;;;;;;;23.66;52.21;98528.75;4486594;32;20083;-84
2022/06/26 03:28:33;;;;;;;5.15;1.87;;;;;;;23.77;52.00;98524.00;4486519;32;20590;-84
2022/06/26 03:30:58;;;;;;;4.47;1.87;;;;;;;23.81;51.98;98517.28;4486697;32;20111;-84
2022/06/26 03:33:24;;;;;;;7.18;2.40;;;;;;;23.93;51.79;98521.25;4486598;32;20415;-84
2022/06/26 03:35:49;;;;;;;7.82;2.50;;;;;;;23.86;51.94;98521.13;4486529;32;20080;-84
2022/06/26 03:38:15;;;;;;;6.20;2.55;;;;;;;23.99;51.62;98523.25;4472141;32;20133;-84
2022/06/26 03:40:40;;;;;;;5.65;2.03;;;;;;;23.94;51.43;98525.62;4486468;32;20080;-84
2022/06/26 03:43:09;;;;;;;4.87;2.00;;;;;;;23.93;51.50;98515.88;4486421;32;20134;-84
2022/06/26 03:45:35;;;;;;;5.97;2.17;;;;;;;23.98;51.25;98518.88;4486362;32;20083;-84
2022/06/26 03:48:00;;;;;;;4.70;1.90;;;;;;;24.13;50.92;98511.72;4486195;32;20464;-84
2022/06/26 03:50:26;;;;;;;4.95;2.12;;;;;;;24.24;50.55;98517.72;4486252;32;20435;-84
2022/06/26 03:52:51;;;;;;;4.10;1.77;;;;;;;24.30;50.21;98519.72;4471970;32;20096;-84
2022/06/26 03:55:16;;;;;;;4.03;1.70;;;;;;;24.37;50.05;98515.28;4486119;32;20359;-84
2022/06/26 03:57:42;;;;;;;4.60;1.55;;;;;;;24.49;49.92;98515.69;4471828;32;20085;-84
2022/06/26 04:00:08;;;;;;;3.92;1.52;;;;;;;24.62;49.65;98510.56;4487466;32;20072;-84
2022/06/26 04:02:33;;;;;;;4.93;1.77;;;;;;;24.80;49.29;98517.50;4488092;32;20119;-84
2022/06/26 04:04:59;;;;;;;22.17;2.42;;;;;;;24.85;49.37;98523.19;4488299;32;20099;-85
2022/06/26 04:07:24;;;;;;;5.68;1.98;;;;;;;24.90;49.50;98518.09;4473832;32;20096;-85
2022/06/26 04:09:49;;;;;;;3.70;1.67;;;;;;;24.92;49.59;98526.84;4488197;32;20118;-85
2022/06/26 04:12:15;;;;;;;4.12;1.75;;;;;;;24.95;49.62;98528.31;4488060;32;20375;-84
2022/06/26 04:14:41;;;;;;;4.28;1.75;;;;;;;25.10;49.28;98524.63;4488026;32;20120;-84
2022/06/26 04:17:07;;;;;;;4.28;1.83;;;;;;;25.23;48.88;98515.13;4488087;32;20080;-83
2022/06/26 04:19:32;;;;;;;4.07;2.00;;;;;;;25.26;48.60;98514.75;4488016;32;20127;-84
2022/06/26 04:21:58;;;;;;;3.55;1.60;;;;;;;25.54;48.17;98524.91;4488111;32;20406;-82
2022/06/26 04:24:24;;;;;;;6.15;1.92;;;;;;;25.46;48.16;98518.56;4488079;32;20145;-84
2022/06/26 04:26:49;;;;;;;3.37;1.70;;;;;;;25.65;47.70;98522.56;4488001;32;20084;-84
2022/06/26 04:29:15;;;;;;;4.15;1.90;;;;;;;25.69;47.85;98528.41;4473815;32;20088;-84
2022/06/26 04:31:40;;;;;;;3.83;1.60;;;;;;;25.82;47.50;98516.97;4487946;32;20087;-85
2022/06/26 04:34:05;;;;;;;4.00;1.60;;;;;;;25.93;47.56;98511.12;4487922;32;20177;-85
2022/06/26 04:36:31;;;;;;;5.78;1.70;;;;;;;26.09;47.07;98520.84;4487981;32;20107;-84
2022/06/26 04:38:56;;;;;;;4.15;1.83;;;;;;;26.31;46.73;98523.56;4460424;32;20111;-84
2022/06/26 04:41:38;;;;;;;4.40;1.75;;;;;;;26.42;45.94;98523.06;4487897;32;20084;-84
2022/06/26 04:44:06;;;;;;;5.47;2.00;;;;;;;26.62;45.61;98528.72;4487932;32;20100;-83
2022/06/26 04:46:32;;;;;;;4.97;1.75;;;;;;;26.84;45.11;98519.56;4487879;32;20092;-83
2022/06/26 04:48:58;;;;;;;4.47;1.83;;;;;;;26.75;45.14;98534.22;4473656;32;20088;-83
2022/06/26 04:51:23;;;;;;;5.12;1.77;;;;;;;26.96;44.82;98538.78;4488074;32;20100;-83
2022/06/26 04:53:49;;;;;;;3.45;1.73;;;;;;;27.06;44.55;98539.31;4488113;32;20118;-84
2022/06/26 04:56:14;;;;;;;5.25;1.85;;;;;;;27.18;44.28;98536.06;4488030;32;20085;-85
2022/06/26 04:58:39;;;;;;;4.37;2.03;;;;;;;27.17;44.14;98532.50;4487767;32;20140;-84
2022/06/26 05:01:05;;;;;;;4.28;1.90;;;;;;;27.26;43.78;98536.75;4473768;32;20382;-84
2022/06/26 05:03:30;;;;;;;4.95;1.90;;;;;;;27.25;43.93;98535.09;4487846;32;20111;-84
2022/06/26 05:05:56;;;;;;;4.70;2.05;;;;;;;27.10;44.61;98534.34;4488117;32;20088;-84
2022/06/26 05:08:22;;;;;;;5.22;2.17;;;;;;;27.23;43.92;98529.00;4487961;32;20136;-84
2022/06/26 05:10:47;;;;;;;5.25;1.98;;;;;;;27.37;43.86;98537.25;4487031;32;20092;-86
2022/06/26 05:13:13;;;;;;;5.57;1.90;;;;;;;27.50;43.40;98536.50;4487991;32;20100;-84
2022/06/26 05:15:38;;;;;;;7.25;2.17;;;;;;;27.53;43.66;98542.34;4487879;32;20095;-85
2022/06/26 05:18:04;;;;;;;5.00;2.10;;;;;;;27.69;43.65;98552.00;4487791;32;20107;-85
2022/06/26 05:20:29;;;;;;;5.37;2.30;;;;;;;27.69;42.94;98548.47;4487904;32;20390;-85
2022/06/26 05:22:55;;;;;;;3.90;1.80;;;;;;;27.81;42.99;98550.41;4473727;32;20119;-84
2022/06/26 05:25:21;;;;;;;4.40;1.80;;;;;;;27.88;42.84;98547.78;4460566;32;20136;-86
2022/06/26 05:27:46;;;;;;;5.10;1.77;;;;;;;27.95;42.79;98535.09;4487797;32;20479;-85
2022/06/26 05:30:11;;;;;;;4.50;2.00;;;;;;;28.01;42.87;98539.72;4473465;32;20364;-85
2022/06/26 05:32:37;;;;;;;4.95;2.15;;;;;;;28.04;42.73;98544.72;4487772;32;20136;-84
2022/06/26 05:35:02;;;;;;;4.22;1.92;;;;;;;28.05;42.72;98542.84;4487776;32;20340;-85
2022/06/26 05:37:28;;;;;;;5.15;2.00;;;;;;;28.16;42.71;98538.72;4487688;32;20147;-84
2022/06/26 05:39:53;;;;;;;7.22;2.28;;;;;;;28.22;42.24;98549.59;4487785;32;20163;-84
2022/06/26 05:42:19;;;;;;;7.40;2.03;;;;;;;28.08;42.87;98542.44;4487744;32;20072;-83
2022/06/26 05:44:44;;;;;;;5.25;1.90;;;;;;;28.24;42.74;98542.09;4487819;32;20114;-85
2022/06/26 05:47:09;;;;;;;4.80;1.83;;;;;;;28.35;42.60;98553.34;4473197;32;20460;-85
2022/06/26 05:49:35;;;;;;;3.92;1.92;;;;;;;28.61;42.14;98549.91;4486841;31;20146;-85
2022/06/26 05:52:00;;;;;;;4.80;2.10;;;;;;;28.65;41.77;98547.59;4487480;32;20092;-84
2022/06/26 05:54:26;;;;;;;5.70;1.90;;;;;;;28.80;41.37;98549.12;4487339;32;20085;-83
2022/06/26 05:56:51;;;;;;;5.60;2.20;;;;;;;28.82;41.48;98547.03;4487205;32;20106;-82
2022/06/26 05:59:17;;;;;;;7.18;2.30;;;;;;;29.00;41.07;98551.81;4487199;32;20104;-83
2022/06/26 06:01:43;;;;;;;4.45;2.10;;;;;;;29.02;41.07;98551.63;4487436;32;20136;-84
2022/06/26 06:04:08;;;;;;;5.07;2.08;;;;;;;28.96;41.08;98553.28;4473024;32;20080;-84
2022/06/26 06:06:34;;;;;;;4.82;1.92;;;;;;;28.71;41.87;98549.53;4469599;32;20131;-84
2022/06/26 06:08:59;;;;;;;4.43;1.70;;;;;;;28.94;41.39;98558.09;4472725;32;20096;-84
2022/06/26 06:11:25;;;;;;;5.37;2.15;;;;;;;29.10;40.53;98561.44;4487250;32;20362;-83
2022/06/26 06:13:51;;;;;;;4.20;1.95;;;;;;;28.94;40.86;98559.97;4483857;31;20616;-86
2022/06/26 06:16:17;;;;;;;4.60;2.00;;;;;;;28.97;40.55;98562.25;4488047;31;20083;-82
2022/06/26 06:18:43;;;;;;;4.85;1.80;;;;;;;28.92;40.99;98564.78;4490431;31;20214;-83
2022/06/26 06:21:08;;;;;;;5.90;2.20;;;;;;;28.59;41.88;98581.81;4486213;31;20092;-83
2022/06/26 06:23:34;;;;;;;4.40;1.90;;;;;;;28.89;41.33;98574.13;4486854;32;20116;-82
2022/06/26 06:25:59;;;;;;;5.03;1.85;;;;;;;28.73;41.61;98579.97;4473051;32;20169;-83
2022/06/26 06:28:24;;;;;;;4.15;1.75;;;;;;;28.94;41.24;98566.22;4486907;31;20116;-85
2022/06/26 06:30:50;;;;;;;4.87;1.80;;;;;;;28.94;41.19;98568.94;4472922;32;20435;-88
2022/06/26 06:33:15;;;;;;;4.07;1.70;;;;;;;28.92;40.77;98581.88;4485378;31;20165;-85
2022/06/26 06:35:41;;;;;;;3.58;1.50;;;;;;;28.94;40.23;98582.50;4469891;32;20088;-89
2022/06/26 06:38:07;;;;;;;4.47;1.83;;;;;;;29.09;39.54;98581.44;4483414;32;20127;-85
2022/06/26 06:40:33;;;;;;;5.25;1.77;;;;;;;29.12;39.58;98587.31;4483622;32;20511;-85
2022/06/26 06:42:58;;;;;;;3.22;1.50;;;;;;;29.16;39.52;98587.75;4483627;31;20096;-86
2022/06/26 06:45:23;;;;;;;5.62;1.65;;;;;;;29.21;38.78;98586.06;4486078;32;20116;-85
2022/06/26 06:47:49;;;;;;;7.50;1.62;;;;;;;29.24;38.71;98587.53;4484141;32;20151;-86
2022/06/26 06:50:14;;;;;;;3.35;1.48;;;;;;;29.19;38.65;98584.63;4483835;32;20492;-88
2022/06/26 06:52:40;;;;;;;4.85;1.58;;;;;;;29.29;38.72;98586.91;4485989;31;20372;-85
2022/06/26 06:55:06;;;;;;;3.72;1.60;;;;;;;29.46;38.55;98593.59;4483047;31;111484;-85
2022/06/26 06:57:31;;;;;;;4.68;1.50;;;;;;;29.41;38.02;98594.19;4485766;32;20087;-85
2022/06/26 06:59:57;;;;;;;2.72;1.40;;;;;;;29.45;37.88;98596.50;4486771;31;20118;-84
2022/06/26 07:02:22;;;;;;;5.53;1.67;;;;;;;29.42;37.30;98597.75;4486806;31;20152;-87
2022/06/26 07:04:47;;;;;;;4.55;1.60;;;;;;;29.45;37.63;98596.50;4486797;32;20125;-87
2022/06/26 07:07:13;;;;;;;3.65;1.45;;;;;;;29.44;37.53;98598.37;4486917;31;20134;-86
2022/06/26 07:09:38;;;;;;;3.42;1.52;;;;;;;29.49;37.23;98593.13;4486754;31;20152;-87
2022/06/26 07:12:04;;;;;;;4.75;1.83;;;;;;;29.54;37.15;98596.06;4486800;31;20115;-89
2022/06/26 07:14:30;;;;;;;3.20;1.48;;;;;;;29.82;37.01;98599.59;4486793;31;20432;-87
2022/06/26 07:16:56;;;;;;;16.33;2.10;;;;;;;29.77;36.37;98582.06;4486681;31;20145;-88
2022/06/26 07:19:21;;;;;;;3.00;1.50;;;;;;;30.01;36.39;98584.28;4486875;31;20114;-89
2022/06/26 07:21:47;;;;;;;3.20;1.45;;;;;;;29.93;36.51;98586.19;4486633;31;20061;-88
2022/06/26 07:24:13;;;;;;;3.45;1.50;;;;;;;30.14;35.82;98581.53;4485478;32;20111;-86
2022/06/26 07:26:39;;;;;;;3.15;1.40;;;;;;;30.14;36.16;98587.78;4486727;31;20119;-88
2022/06/26 07:29:05;;;;;;;3.25;1.30;;;;;;;30.09;36.20;98584.06;4485299;32;20171;-88
2022/06/26 07:31:31;;;;;;;5.10;1.48;;;;;;;29.94;35.87;98587.00;4486664;31;20447;-88
2022/06/26 07:34:16;;;;;;;5.45;1.35;;;;;;;29.85;36.46;98586.44;4485461;31;20072;-88
2022/06/26 07:36:46;;;;;;;4.43;1.40;;;;;;;30.18;36.27;98580.03;4486472;31;20111;-87
2022/06/26 07:39:14;;;;;;;3.72;1.40;;;;;;;30.48;35.24;98577.66;4485286;32;20112;-87
2022/06/26 07:41:41;;;;;;;5.32;1.62;;;;;;;30.51;35.34;98579.09;4485394;32;20473;-87
2022/06/26 07:44:06;;;;;;;2.08;1.20;;;;;;;30.63;35.50;98579.22;4486465;31;20093;-87
2022/06/26 07:46:34;;;;;;;3.62;1.30;;;;;;;30.73;34.23;98579.56;4484952;32;20130;-87
2022/06/26 07:49:00;;;;;;;43.38;3.50;;;;;;;30.78;34.21;98590.63;4486409;31;20096;-88
2022/06/26 07:51:26;;;;;;;4.80;1.37;;;;;;;30.84;34.79;98583.47;4485067;32;20088;-88
2022/06/26 07:53:51;;;;;;;3.50;1.30;;;;;;;31.02;34.10;98583.56;4484772;32;20110;-87
2022/06/26 07:56:17;;;;;;;2.65;1.20;;;;;;;31.00;34.39;98574.78;4484660;31;20123;-87
2022/06/26 07:58:43;;;;;;;4.57;1.40;;;;;;;31.08;34.28;98582.72;4487132;32;20427;-85
2022/06/26 08:01:08;;;;;;;3.28;1.42;;;;;;;31.21;34.19;98586.38;4486544;31;20084;-90
2022/06/26 08:03:34;;;;;;;4.57;1.40;;;;;;;31.26;33.60;98581.91;4485918;31;20116;-95
2022/06/26 08:05:59;;;;;;;4.62;1.65;;;;;;;31.27;33.61;98586.28;4481610;32;20112;-87
2022/06/26 08:08:25;;;;;;;7.00;2.00;;;;;;;31.33;33.81;98582.69;4482303;32;20164;-94
2022/06/26 08:10:50;;;;;;;8.48;2.30;;;;;;;31.43;34.44;98586.78;4486530;31;20115;-92
2022/06/26 08:13:16;;;;;;;5.45;1.77;;;;;;;31.14;35.64;98589.97;4487879;31;20097;-96
2022/06/26 08:15:41;;;;;;;4.97;2.00;;;;;;;31.56;34.73;98592.13;4486406;32;20119;-90
2022/06/26 08:18:07;;;;;;;6.28;1.80;;;;;;;31.59;34.58;98594.41;4485610;31;20229;-85
2022/06/26 08:20:33;;;;;;;4.72;1.73;;;;;;;31.75;33.64;98587.56;4485851;31;20080;-86
2022/06/26 08:22:58;;;;;;;6.25;2.00;;;;;;;31.57;34.16;98585.66;4478582;31;20111;-84
2022/06/26 08:25:24;;;;;;;5.12;1.92;;;;;;;31.62;34.27;98588.53;4477733;31;20417;-83
2022/06/26 08:27:49;;;;;;;4.85;2.00;;;;;;;31.72;34.28;98588.03;4485467;31;20096;-86
2022/06/26 08:30:15;;;;;;;4.37;1.65;;;;;;;31.82;33.70;98590.22;4484826;32;20183;-82
2022/06/26 08:32:40;;;;;;;4.40;1.80;;;;;;;31.73;33.51;98589.66;4481802;32;20142;-83
2022/06/26 08:35:08;;;;;;;3.35;1.65;;;;;;;31.65;33.72;98590.78;4478592;31;20123;-83
2022/06/26 08:37:33;;;;;;;;;;;;;;;31.49;33.92;98592.22;4487366;31;20147;-84
2022/06/26 08:39:59;;;;;;;6.97;2.10;;;;;;;31.46;34.59;98598.09;4483041;32;20094;-83
2022/06/26 08:42:26;;;;;;;4.95;2.12;;;;;;;31.33;34.71;98590.87;4484911;32;20085;-83
2022/06/26 08:44:51;;;;;;;3.95;1.90;;;;;;;31.42;34.44;98596.84;4471203;32;20538;-83
2022/06/26 08:47:20;;;;;;;4.12;1.90;;;;;;;31.62;34.05;98596.72;4472970;32;20100;-82
2022/06/26 08:49:46;;;;;;;7.12;2.25;;;;;;;31.45;34.34;98601.84;4500561;31;20450;-83
2022/06/26 08:52:14;;;;;;;30.90;3.42;;;;;;;31.57;34.34;98595.72;4487313;32;20107;-80
2022/06/26 08:54:41;;;;;;;8.35;2.35;;;;;;;31.75;34.28;98591.09;4487110;31;20149;-80
2022/06/26 08:57:06;;;;;;;5.72;2.03;;;;;;;31.80;34.19;98589.63;4473074;32;20096;-81
2022/06/26 08:59:32;;;;;;;5.07;2.00;;;;;;;31.91;33.75;98594.28;4473397;31;20179;-81
2022/06/26 09:01:57;;;;;;;4.78;1.85;;;;;;;32.04;32.84;98596.06;4485369;32;20371;-80
2022/06/26 09:04:23;;;;;;;4.93;1.95;;;;;;;31.94;32.71;98596.56;4472921;32;20104;-82
2022/06/26 09:06:48;;;;;;;4.90;2.00;;;;;;;31.98;32.33;98594.22;4472590;32;20101;-81
2022/06/26 09:09:19;;;;;;;4.60;2.00;;;;;;;31.79;32.78;98594.22;4487118;32;20181;-81
2022/06/26 09:11:45;;;;;;;5.60;2.00;;;;;;;31.66;33.56;98597.06;4487128;31;20087;-80
2022/06/26 09:14:12;;;;;;;4.20;2.03;;;;;;;31.77;33.33;98590.87;4487153;31;20115;-80
2022/06/26 09:16:39;;;;;;;5.28;2.20;;;;;;;31.78;33.24;98595.28;4472760;32;20123;-80
2022/06/26 09:19:08;;;;;;;;;;;;;;;31.89;33.05;98594.53;4497979;31;20143;-80
2022/06/26 09:21:33;;;;;;;5.70;1.80;;;;;;;31.98;32.85;98592.31;4489138;31;19968;-80
2022/06/26 09:23:59;;;;;;;5.20;2.10;;;;;;;32.10;32.52;98590.56;4487122;31;20096;-80
2022/06/26 09:26:24;;;;;;;4.55;1.92;;;;;;;32.09;32.54;98594.31;4487061;32;20096;-81
2022/06/26 09:28:50;;;;;;;4.10;1.90;;;;;;;32.00;32.54;98590.19;4486905;31;20500;-80
2022/06/26 09:31:20;;;;;;;18.55;3.12;;;;;;;32.20;32.19;98595.47;4487004;32;20453;-80
2022/06/26 09:33:45;;;;;;;5.30;2.30;;;;;;;32.25;32.14;98589.31;4473330;32;20123;-80
2022/06/26 09:36:15;;;;;;;15.70;2.65;;;;;;;32.21;31.62;98590.84;4483706;32;20404;-80
2022/06/26 09:38:48;;;;;;;3.83;1.75;;;;;;;32.21;32.08;98588.94;4486662;32;20139;-81
2022/06/26 09:41:13;;;;;;;4.93;1.95;;;;;;;32.01;31.59;98586.47;4476939;32;20486;-80
2022/06/26 09:43:41;;;;;;;4.97;1.90;;;;;;;32.04;31.44;98588.72;4486888;32;20093;-80
2022/06/26 09:46:09;;;;;;;5.47;2.00;;;;;;;31.93;32.14;98590.28;4486996;32;20105;-81
2022/06/26 09:48:35;;;;;;;4.72;1.98;;;;;;;32.07;31.79;98590.16;4486874;31;20084;-80
2022/06/26 09:51:03;;;;;;;5.45;2.03;;;;;;;32.01;30.91;98581.00;4472652;32;20079;-80
2022/06/26 09:53:30;;;;;;;6.00;2.10;;;;;;;31.97;31.37;98582.50;4486999;31;20115;-81
2022/06/26 09:55:57;;;;;;;7.97;2.20;;;;;;;32.07;31.79;98579.28;4484801;32;20100;-81
2022/06/26 09:58:23;;;;;;;;;;;;;;;32.11;31.14;98585.94;4486342;32;20084;-80
2022/06/26 10:06:26;;;;;;;4.70;1.95;;;;;;;32.22;30.27;98584.31;4474889;32;20231;-80
2022/06/26 10:09:04;;;;;;;9.27;2.03;;;;;;;32.31;30.51;98591.94;4472690;32;20088;-81
2022/06/26 10:11:31;;;;;;;6.25;1.83;;;;;;;32.24;30.22;98584.91;4499853;31;20107;-84
2022/06/26 10:13:58;;;;;;;6.28;2.37;;;;;;;32.24;30.42;98579.47;4472614;32;20459;-82
2022/06/26 10:16:30;;;;;;;5.25;1.85;;;;;;;32.30;30.29;98584.84;4486728;32;20084;-80
2022/06/26 10:19:14;;;;;;;3.60;1.65;;;;;;;32.35;29.97;98586.03;4490013;31;20207;-79
2022/06/26 10:21:40;;;;;;;5.40;1.98;;;;;;;32.33;30.33;98578.91;4486737;32;20103;-79
2022/06/26 10:24:06;;;;;;;6.95;1.95;;;;;;;32.27;30.12;98579.84;4463626;31;20104;-92
2022/06/26 10:26:32;;;;;;;5.23;1.97;;;;;;;32.44;29.70;98577.31;4481208;32;20159;-92
2022/06/26 10:29:05;;;;;;;5.15;2.12;;;;;;;32.48;29.59;98567.59;4472301;32;20180;-90
2022/06/26 10:31:31;;;;;;;5.37;1.83;;;;;;;32.43;29.88;98572.09;4486652;32;20076;-89
2022/06/26 10:34:09;;;;;;;6.03;1.90;;;;;;;32.58;29.27;98575.25;4484763;32;20411;-88
2022/06/26 10:36:35;;;;;;;13.68;2.58;;;;;;;32.35;28.84;98572.41;4486688;32;20100;-89
2022/06/26 10:39:05;;;;;;;5.45;1.80;;;;;;;32.39;29.21;98566.25;4477811;32;20131;-90
2022/06/26 10:44:37;;;;;;;3.78;1.77;;;;;;;32.25;29.16;98575.69;4486690;32;20493;-89
2022/06/26 10:47:13;;;;;;;6.82;2.05;;;;;;;32.27;28.88;98570.84;4477685;32;20134;-89
2022/06/26 10:49:51;;;;;;;5.25;1.80;;;;;;;32.34;29.00;98574.31;4472258;32;20088;-89
2022/06/26 10:52:26;;;;;;;5.40;1.77;;;;;;;32.33;28.83;98568.00;4472421;32;20156;-89
2022/06/26 10:54:53;;;;;;;5.35;1.80;;;;;;;32.53;28.47;98565.03;4486189;32;20100;-85
2022/06/26 10:57:42;;;;;;;4.32;1.70;;;;;;;32.56;28.14;98562.91;4486178;32;20121;-85
2022/06/26 11:00:12;;;;;;;12.37;2.60;;;;;;;32.67;28.13;98565.69;4486005;32;20119;-87
2022/06/26 11:02:40;;;;;;;21.92;3.58;;;;;;;32.65;27.86;98564.28;4480023;32;20106;-83
2022/06/26 11:05:08;;;;;;;7.07;1.92;;;;;;;32.66;27.46;98571.38;4486330;32;20157;-83
2022/06/26 11:07:53;;;;;;;4.62;1.90;;;;;;;32.60;27.63;98564.12;4486162;31;20101;-83
2022/06/26 11:10:24;;;;;;;6.95;1.90;;;;;;;32.74;27.28;98565.56;4459506;32;20447;-82
2022/06/26 11:12:51;;;;;;;6.05;2.20;;;;;;;32.83;26.95;98569.63;4471025;32;20461;-82
2022/06/26 11:15:32;;;;;;;5.40;1.83;;;;;;;32.81;26.88;98573.69;4484344;32;20107;-82
2022/06/26 11:18:03;;;;;;;4.75;2.10;;;;;;;32.83;26.88;98572.38;4485486;32;20108;-81
2022/06/26 11:20:50;;;;;;;4.90;1.85;;;;;;;32.79;26.86;98567.63;4485578;32;20088;-82
2022/06/26 11:23:20;;;;;;;5.00;2.00;;;;;;;32.68;26.27;98564.62;4472816;32;20081;-82
2022/06/26 11:25:54;;;;;;;6.07;2.08;;;;;;;32.64;26.05;98563.41;4486656;32;20096;-81
2022/06/26 11:28:19;;;;;;;6.00;1.90;;;;;;;32.57;25.91;98562.69;4485509;32;20130;-82
2022/06/26 11:30:46;;;;;;;6.62;2.03;;;;;;;32.63;25.79;98564.50;4485336;32;20352;-82
2022/06/26 11:33:12;;;;;;;6.68;2.00;;;;;;;32.82;26.29;98570.72;4486563;32;20160;-82
2022/06/26 11:35:38;;;;;;;5.30;2.05;;;;;;;32.77;26.19;98569.75;4486423;32;20460;-82
2022/06/26 11:38:11;;;;;;;5.87;1.85;;;;;;;32.78;25.77;98564.06;4485653;32;20176;-82
2022/06/26 11:40:37;;;;;;;5.70;2.05;;;;;;;32.87;25.60;98561.81;4486757;32;20087;-82
2022/06/26 11:43:03;;;;;;;3.85;1.83;;;;;;;32.77;25.77;98562.41;4485525;32;20144;-82
2022/06/26 11:45:33;;;;;;;7.07;1.90;;;;;;;32.95;26.04;98563.38;4486397;32;20104;-82